Time;durP1;ratioP1;P1;durP2;ratioP2;P2;SDS_P1;SDS_P2;PMS_P1;PMS_P2;Temp;Humidity;BMP_temperature;BMP_pressure;BME280_temperature;BME280_humidity;BME280_pressure;Samples;Min_cycle;Max_cycle;Signal;HPM_P1;HPM_P2
2022/07/25 00:01:06;;;;;;;9.80;8.98;;;;;;;22.70;52.30;95505.81;5045829;28;20258;-80
2022/07/25 00:03:32;;;;;;;10.93;9.93;;;;;;;22.68;52.65;95503.38;5055138;28;20197;-80
2022/07/25 00:05:57;;;;;;;10.70;9.80;;;;;;;22.61;52.69;95502.66;5054179;28;20189;-80
2022/07/25 00:08:22;;;;;;;12.27;10.07;;;;;;;22.49;53.24;95505.25;5043004;28;20182;-79
2022/07/25 00:10:48;;;;;;;11.57;10.50;;;;;;;22.58;53.06;95493.34;5046760;28;20247;-79
2022/07/25 00:13:13;;;;;;;10.90;9.95;;;;;;;22.58;53.20;95501.28;5052906;28;20687;-79
2022/07/25 00:15:38;;;;;;;11.60;10.30;;;;;;;22.60;53.34;95501.03;5026211;28;20198;-79
2022/07/25 00:18:03;;;;;;;11.70;10.60;;;;;;;22.55;53.45;95498.28;5045430;28;20726;-79
2022/07/25 00:20:29;;;;;;;11.25;10.18;;;;;;;22.58;53.30;95500.47;5041562;28;20565;-79
2022/07/25 00:22:54;;;;;;;11.80;10.65;;;;;;;22.64;53.39;95499.59;5059202;28;20209;-80
2022/07/25 00:25:19;;;;;;;11.27;10.20;;;;;;;22.61;53.49;95498.19;5046832;28;20282;-79
2022/07/25 00:27:45;;;;;;;10.75;9.65;;;;;;;22.65;53.48;95495.09;5045141;28;20192;-79
2022/07/25 00:30:10;;;;;;;10.85;9.75;;;;;;;22.63;53.31;95495.31;5061874;28;20552;-80
2022/07/25 00:32:36;;;;;;;11.25;10.27;;;;;;;22.67;53.48;95488.53;5055663;28;20214;-80
2022/07/25 00:35:01;;;;;;;11.60;10.52;;;;;;;22.60;53.78;95490.47;5025607;28;20190;-80
2022/07/25 00:37:26;;;;;;;11.57;10.43;;;;;;;22.62;53.69;95499.00;5040750;28;20182;-80
2022/07/25 00:39:51;;;;;;;11.25;10.35;;;;;;;22.62;54.03;95493.72;5062847;28;20196;-79
2022/07/25 00:42:17;;;;;;;11.90;10.18;;;;;;;22.70;53.74;95490.72;5042598;28;20205;-80
2022/07/25 00:44:42;;;;;;;11.98;10.65;;;;;;;22.63;53.96;95490.03;5051586;28;20263;-79
2022/07/25 00:47:08;;;;;;;10.82;9.80;;;;;;;22.77;53.56;95483.50;5061877;28;20181;-79
2022/07/25 00:49:33;;;;;;;11.95;10.85;;;;;;;22.71;53.77;95481.78;5061885;28;20182;-79
2022/07/25 00:51:59;;;;;;;11.05;10.05;;;;;;;22.69;53.76;95488.31;5043715;28;20213;-80
2022/07/25 00:54:24;;;;;;;11.73;10.60;;;;;;;22.68;53.66;95481.41;5047512;28;20672;-80
2022/07/25 00:56:50;;;;;;;12.10;10.35;;;;;;;22.74;53.70;95475.22;5048568;28;20529;-80
2022/07/25 00:59:16;;;;;;;10.80;9.90;;;;;;;22.73;53.81;95474.41;5049260;28;20252;-79
2022/07/25 01:01:44;;;;;;;11.65;10.65;;;;;;;22.79;53.59;95467.41;5047824;28;20201;-79
2022/07/25 01:04:09;;;;;;;11.25;9.90;;;;;;;22.71;53.88;95468.56;5048598;28;20203;-79
2022/07/25 01:06:34;;;;;;;11.50;10.50;;;;;;;22.80;53.62;95472.50;5057204;28;20216;-80
2022/07/25 01:09:00;;;;;;;11.63;10.52;;;;;;;22.77;53.57;95467.63;5048213;28;20201;-80
2022/07/25 01:11:25;;;;;;;11.43;10.27;;;;;;;22.72;53.95;95469.34;5031527;28;20213;-79
2022/07/25 01:13:51;;;;;;;12.55;11.35;;;;;;;22.63;54.31;95462.75;5045244;28;20580;-79
2022/07/25 01:16:17;;;;;;;11.85;10.65;;;;;;;22.65;54.43;95460.69;5048152;28;20640;-79
2022/07/25 01:18:42;;;;;;;10.88;9.82;;;;;;;22.67;53.93;95461.28;5047458;28;20193;-79
2022/07/25 01:21:07;;;;;;;11.40;10.30;;;;;;;22.61;54.25;95466.41;5048560;28;20217;-79
2022/07/25 01:23:33;;;;;;;11.38;10.40;;;;;;;22.51;54.47;95454.75;5066062;28;20311;-79
2022/07/25 01:25:58;;;;;;;11.65;10.55;;;;;;;22.51;54.49;95458.22;5046561;28;20229;-79
2022/07/25 01:28:24;;;;;;;11.23;10.23;;;;;;;22.57;54.26;95459.16;5046155;28;20182;-80
2022/07/25 01:30:49;;;;;;;11.70;10.30;;;;;;;22.60;54.03;95451.56;5065366;28;20188;-79
2022/07/25 01:33:16;;;;;;;10.80;9.93;;;;;;;22.55;53.93;95455.94;5054165;28;20214;-80
2022/07/25 01:35:42;;;;;;;10.68;9.68;;;;;;;22.47;54.00;95453.59;5045754;28;20182;-79
2022/07/25 01:38:07;;;;;;;10.82;9.73;;;;;;;22.44;53.95;95452.22;5064961;28;20185;-79
2022/07/25 01:40:32;;;;;;;11.90;10.70;;;;;;;22.40;53.71;95448.38;5063161;28;20174;-79
2022/07/25 01:42:58;;;;;;;10.68;9.68;;;;;;;22.40;53.98;95443.09;5046235;28;20569;-80
2022/07/25 01:45:23;;;;;;;11.63;10.52;;;;;;;22.33;54.00;95452.94;5065668;28;20181;-80
2022/07/25 01:47:48;;;;;;;11.30;10.20;;;;;;;22.27;54.02;95438.81;5045368;28;20189;-79
2022/07/25 01:50:14;;;;;;;10.23;9.27;;;;;;;22.26;53.96;95447.78;5065105;28;20181;-80
2022/07/25 01:52:39;;;;;;;10.40;9.35;;;;;;;22.21;54.01;95438.88;5064597;28;20209;-79
2022/07/25 01:55:05;;;;;;;10.68;9.77;;;;;;;22.28;53.85;95440.41;5056245;28;20204;-79
2022/07/25 01:57:30;;;;;;;11.18;10.02;;;;;;;22.21;53.86;95442.31;5047031;28;20258;-79
2022/07/25 01:59:55;;;;;;;10.27;9.40;;;;;;;22.33;53.39;95437.88;5047986;28;20188;-79
2022/07/25 02:02:21;;;;;;;10.02;8.82;;;;;;;22.30;53.44;95433.06;5028857;28;20201;-79
2022/07/25 02:04:46;;;;;;;10.15;9.15;;;;;;;22.21;53.98;95426.47;5031477;28;20181;-80
2022/07/25 02:07:11;;;;;;;10.23;9.23;;;;;;;22.17;53.67;95427.13;5065594;28;20192;-79
2022/07/25 02:09:36;;;;;;;10.48;9.57;;;;;;;22.20;53.77;95424.84;5045777;28;20186;-80
2022/07/25 02:12:02;;;;;;;10.30;9.45;;;;;;;22.25;53.38;95417.03;5047654;28;20283;-80
2022/07/25 02:14:27;;;;;;;10.07;8.88;;;;;;;22.19;53.51;95410.00;5062649;28;20198;-79
2022/07/25 02:16:52;;;;;;;10.43;9.45;;;;;;;22.27;53.17;95412.34;5028451;28;20193;-79
2022/07/25 02:19:18;;;;;;;9.63;8.82;;;;;;;22.34;52.75;95413.03;5064466;28;20196;-80
2022/07/25 02:21:43;;;;;;;10.00;9.00;;;;;;;22.39;52.92;95409.75;5062936;28;20567;-79
2022/07/25 02:24:08;;;;;;;10.35;9.27;;;;;;;22.36;52.75;95415.50;5044931;28;20213;-79
2022/07/25 02:26:34;;;;;;;9.80;8.85;;;;;;;22.37;52.92;95413.66;5047337;28;20208;-80
2022/07/25 02:28:59;;;;;;;10.52;9.52;;;;;;;22.25;53.09;95421.50;5062114;28;20190;-79
2022/07/25 02:31:24;;;;;;;10.88;9.57;;;;;;;22.15;53.31;95418.59;5045278;28;20227;-80
2022/07/25 02:33:50;;;;;;;10.07;9.18;;;;;;;22.25;52.96;95416.22;5063311;28;20619;-79
2022/07/25 02:36:15;;;;;;;9.95;9.13;;;;;;;22.19;53.62;95411.84;5028184;28;20192;-78
2022/07/25 02:38:41;;;;;;;10.05;9.15;;;;;;;22.12;53.88;95403.19;5046241;28;20275;-79
2022/07/25 02:41:06;;;;;;;10.15;9.10;;;;;;;22.06;53.86;95410.94;5063371;28;20181;-79
2022/07/25 02:43:31;;;;;;;11.90;10.07;;;;;;;21.96;54.34;95405.38;5044410;28;20216;-80
2022/07/25 02:45:57;;;;;;;10.40;9.50;;;;;;;21.94;54.41;95410.06;5044131;28;20182;-79
2022/07/25 02:48:22;;;;;;;10.02;9.13;;;;;;;21.90;54.72;95408.09;5045655;28;20641;-80
2022/07/25 02:50:47;;;;;;;10.93;9.82;;;;;;;21.87;54.45;95403.25;5063630;28;20185;-79
2022/07/25 02:53:13;;;;;;;10.63;9.43;;;;;;;21.84;54.41;95395.78;5061124;28;20305;-79
2022/07/25 02:55:38;;;;;;;10.18;9.20;;;;;;;21.80;54.30;95400.69;5045097;28;20637;-80
2022/07/25 02:58:04;;;;;;;11.82;10.73;;;;;;;21.86;54.21;95397.16;5063473;28;20243;-79
2022/07/25 03:00:29;;;;;;;10.52;9.63;;;;;;;21.88;54.26;95389.00;5061993;28;20186;-79
2022/07/25 03:02:55;;;;;;;10.10;9.30;;;;;;;21.80;54.04;95391.94;5046183;28;20203;-79
2022/07/25 03:05:20;;;;;;;11.35;9.93;;;;;;;21.80;54.13;95399.88;5063864;28;20181;-79
2022/07/25 03:07:46;;;;;;;10.07;9.18;;;;;;;21.84;53.90;95393.13;5044262;28;20281;-78
2022/07/25 03:10:13;;;;;;;10.50;9.50;;;;;;;21.84;53.79;95387.84;5046055;28;20211;-79
2022/07/25 03:12:39;;;;;;;10.57;9.65;;;;;;;21.70;54.44;95393.25;5045657;28;20205;-79
2022/07/25 03:15:05;;;;;;;11.10;10.10;;;;;;;21.78;53.93;95385.03;5026087;28;20232;-79
2022/07/25 03:17:30;;;;;;;10.95;9.95;;;;;;;21.67;54.13;95391.06;5062303;28;20254;-79
2022/07/25 03:19:56;;;;;;;10.02;9.18;;;;;;;21.66;54.33;95389.47;5062293;28;20181;-79
2022/07/25 03:22:22;;;;;;;11.02;10.00;;;;;;;21.71;54.07;95384.31;5027395;28;20202;-79
2022/07/25 03:24:48;;;;;;;11.40;10.30;;;;;;;21.67;54.30;95379.69;5053203;28;20169;-79
2022/07/25 03:27:13;;;;;;;11.77;10.68;;;;;;;21.67;54.19;95385.78;5061661;28;20204;-79
2022/07/25 03:29:39;;;;;;;11.63;10.55;;;;;;;21.64;54.23;95380.13;5026190;28;20220;-79
2022/07/25 03:32:05;;;;;;;10.88;9.95;;;;;;;21.64;54.28;95373.00;5046091;28;20201;-79
2022/07/25 03:34:30;;;;;;;12.02;10.80;;;;;;;21.62;54.00;95377.69;5051876;28;20216;-79
2022/07/25 03:36:55;;;;;;;11.45;10.38;;;;;;;21.64;53.83;95374.84;5027324;28;20190;-79
2022/07/25 03:39:21;;;;;;;11.75;10.65;;;;;;;21.67;53.90;95372.56;5047107;28;20608;-79
2022/07/25 03:41:46;;;;;;;11.30;10.30;;;;;;;21.68;53.60;95366.25;5040135;28;20708;-80
2022/07/25 03:44:12;;;;;;;11.13;10.18;;;;;;;21.70;53.89;95363.38;5023465;28;20543;-80
2022/07/25 03:46:37;;;;;;;11.48;10.30;;;;;;;21.63;53.86;95363.47;5046172;28;20356;-80
2022/07/25 03:49:03;;;;;;;12.43;11.15;;;;;;;21.62;53.85;95364.50;5044123;28;20634;-80
2022/07/25 03:51:28;;;;;;;11.23;10.25;;;;;;;21.59;53.94;95357.00;5044640;28;20197;-80
2022/07/25 03:54:03;;;;;;;11.18;10.23;;;;;;;21.61;53.73;95357.59;5045121;28;20212;-79
2022/07/25 03:56:30;;;;;;;10.55;9.57;;;;;;;21.68;53.22;95354.88;5045361;28;20339;-79
2022/07/25 03:58:55;;;;;;;11.18;10.05;;;;;;;21.76;53.18;95351.94;5053220;28;20181;-80
2022/07/25 04:01:20;;;;;;;9.85;8.93;;;;;;;21.81;52.88;95354.72;5026570;28;20197;-79
2022/07/25 04:03:46;;;;;;;10.45;9.55;;;;;;;21.83;52.22;95349.22;5043927;28;20187;-80
2022/07/25 04:06:11;;;;;;;9.60;8.80;;;;;;;21.91;52.05;95344.44;5061618;28;20185;-80
2022/07/25 04:08:36;;;;;;;9.85;8.95;;;;;;;21.96;51.74;95343.75;5026542;28;20189;-81
2022/07/25 04:11:01;;;;;;;10.38;9.38;;;;;;;22.08;51.39;95344.63;5027983;28;20185;-80
2022/07/25 04:13:27;;;;;;;10.15;9.30;;;;;;;22.95;49.26;95342.34;5044090;28;20232;-80
2022/07/25 04:15:52;;;;;;;9.10;8.30;;;;;;;23.88;46.20;95349.41;5025493;28;20190;-80
2022/07/25 04:18:17;;;;;;;9.65;8.73;;;;;;;23.82;45.66;95344.22;5027849;28;20589;-80
2022/07/25 04:20:43;;;;;;;9.98;9.02;;;;;;;23.65;45.89;95349.47;5044110;28;20214;-80
2022/07/25 04:23:08;;;;;;;11.48;9.38;;;;;;;23.22;46.90;95345.34;5026395;28;20227;-80
2022/07/25 04:25:33;;;;;;;10.20;9.20;;;;;;;23.05;47.37;95339.91;5063146;28;20202;-80
2022/07/25 04:27:58;;;;;;;9.27;8.48;;;;;;;23.01;47.33;95345.91;5046588;28;20185;-80
2022/07/25 04:30:24;;;;;;;9.65;8.75;;;;;;;22.81;47.89;95333.78;5043396;28;20266;-80
2022/07/25 04:32:49;;;;;;;10.32;9.30;;;;;;;22.73;48.03;95343.91;5061512;28;20265;-80
2022/07/25 04:35:14;;;;;;;9.45;8.65;;;;;;;22.65;48.32;95334.47;5058941;28;20181;-80
2022/07/25 04:37:40;;;;;;;10.60;9.48;;;;;;;22.66;48.42;95336.06;5026709;28;20411;-81
2022/07/25 04:40:05;;;;;;;9.95;9.05;;;;;;;22.68;48.43;95336.63;5061265;28;20196;-80
2022/07/25 04:42:31;;;;;;;10.00;9.10;;;;;;;22.80;48.41;95332.19;5063380;28;20240;-79
2022/07/25 04:44:56;;;;;;;10.20;9.07;;;;;;;23.96;45.65;95332.31;5059339;28;20178;-80
2022/07/25 04:47:21;;;;;;;10.13;9.23;;;;;;;26.35;40.91;95341.19;5042312;28;20185;-80
2022/07/25 04:49:47;;;;;;;9.65;8.65;;;;;;;28.44;36.46;95334.50;5044944;28;20180;-81
2022/07/25 04:52:12;;;;;;;10.18;9.20;;;;;;;29.49;34.14;95350.81;5035029;28;20315;-79
2022/07/25 04:54:37;;;;;;;9.63;8.73;;;;;;;30.71;31.25;95341.47;5042505;28;20209;-83
2022/07/25 04:57:04;;;;;;;9.98;9.07;;;;;;;31.49;29.94;95343.22;5054978;28;20189;-83
2022/07/25 04:59:30;;;;;;;9.20;8.43;;;;;;;33.13;28.09;95342.66;5062550;28;20189;-82
2022/07/25 05:01:55;;;;;;;9.60;8.82;;;;;;;32.86;27.94;95349.56;5060481;28;20213;-82
2022/07/25 05:04:20;;;;;;;9.50;8.60;;;;;;;33.40;26.93;95350.06;5026297;28;20196;-83
2022/07/25 05:06:45;;;;;;;9.15;8.45;;;;;;;33.18;27.80;95343.38;5051138;28;20177;-78
2022/07/25 05:09:11;;;;;;;8.90;8.20;;;;;;;34.41;25.59;95347.28;5068509;28;20653;-78
2022/07/25 05:11:36;;;;;;;9.30;8.43;;;;;;;33.87;26.52;95351.56;5045468;28;20197;-81
2022/07/25 05:14:02;;;;;;;9.10;8.40;;;;;;;35.15;24.83;95349.59;5060224;28;20708;-82
2022/07/25 05:16:27;;;;;;;9.75;8.75;;;;;;;34.30;26.52;95345.88;5059194;28;20177;-82
2022/07/25 05:18:52;;;;;;;9.40;8.70;;;;;;;35.90;23.42;95339.84;5025902;28;20379;-82
2022/07/25 05:21:17;;;;;;;9.02;8.25;;;;;;;36.27;22.88;95338.50;5060874;28;20208;-83
2022/07/25 05:23:43;;;;;;;9.13;8.45;;;;;;;35.15;24.50;95331.50;5059134;28;20198;-82
2022/07/25 05:26:08;;;;;;;9.15;8.40;;;;;;;35.65;23.70;95333.22;5026208;28;20196;-81
2022/07/25 05:28:34;;;;;;;8.52;7.93;;;;;;;36.23;23.25;95330.25;5061194;28;20254;-81
2022/07/25 05:30:59;;;;;;;9.68;8.70;;;;;;;35.13;24.42;95325.63;5050472;28;20549;-81
2022/07/25 05:33:25;;;;;;;9.90;8.98;;;;;;;35.97;23.97;95326.69;5043425;28;20250;-81
2022/07/25 05:35:51;;;;;;;9.95;9.13;;;;;;;37.54;22.16;95336.38;5047919;28;20284;-81
2022/07/25 05:38:16;;;;;;;9.45;8.70;;;;;;;36.45;22.58;95328.53;5060497;28;20193;-81
2022/07/25 05:40:41;;;;;;;9.60;8.90;;;;;;;36.27;23.59;95331.19;5062610;28;20188;-80
2022/07/25 05:43:07;;;;;;;10.15;9.27;;;;;;;36.69;22.80;95328.84;5032107;28;20193;-80
2022/07/25 05:45:33;;;;;;;8.65;7.88;;;;;;;37.07;22.24;95329.00;5027697;28;20738;-81
2022/07/25 05:47:58;;;;;;;9.98;9.18;;;;;;;35.82;23.82;95329.78;5069982;28;20186;-81
2022/07/25 05:50:23;;;;;;;10.27;9.40;;;;;;;36.86;22.89;95322.69;5075331;28;20684;-80
2022/07/25 05:52:49;;;;;;;9.65;8.80;;;;;;;37.21;22.72;95322.63;5062237;28;20251;-81
2022/07/25 05:55:14;;;;;;;9.48;8.75;;;;;;;38.38;20.87;95330.09;5052331;28;20731;-81
2022/07/25 05:57:40;;;;;;;10.10;9.30;;;;;;;36.48;23.28;95323.28;5032449;28;20632;-82
2022/07/25 06:00:06;;;;;;;10.40;9.45;;;;;;;36.03;24.00;95314.59;5045259;28;20186;-82
2022/07/25 06:02:31;;;;;;;9.80;9.07;;;;;;;37.23;22.34;95321.16;5051763;28;20216;-81
2022/07/25 06:04:57;;;;;;;10.13;9.32;;;;;;;37.43;22.17;95323.19;5050311;28;20180;-82
2022/07/25 06:07:23;;;;;;;9.60;8.80;;;;;;;38.57;20.59;95316.06;5064355;28;20645;-81
2022/07/25 06:09:48;;;;;;;9.95;9.15;;;;;;;37.57;22.45;95314.09;5048733;28;20234;-81
2022/07/25 06:12:13;;;;;;;9.85;9.15;;;;;;;36.69;23.01;95322.66;5052252;28;20204;-81
2022/07/25 06:14:39;;;;;;;9.55;8.82;;;;;;;38.83;20.65;95323.25;5071398;28;20255;-81
2022/07/25 06:17:04;;;;;;;10.15;9.45;;;;;;;38.02;21.34;95321.69;5065365;28;20173;-81
2022/07/25 06:19:29;;;;;;;10.20;9.40;;;;;;;38.64;20.76;95310.91;5065958;28;20180;-82
2022/07/25 06:21:54;;;;;;;10.60;9.75;;;;;;;37.64;21.96;95322.50;5032438;28;20211;-82
2022/07/25 06:24:20;;;;;;;10.32;9.55;;;;;;;39.62;20.21;95328.38;5051724;28;20610;-82
2022/07/25 06:26:45;;;;;;;10.45;9.57;;;;;;;38.14;21.74;95322.56;5047675;28;20212;-83
2022/07/25 06:29:11;;;;;;;10.27;9.48;;;;;;;36.69;23.35;95317.25;5047980;28;20204;-82
2022/07/25 06:31:36;;;;;;;10.13;9.43;;;;;;;38.78;21.08;95318.78;5030042;28;20187;-82
2022/07/25 06:34:01;;;;;;;10.52;9.63;;;;;;;38.45;21.51;95311.41;5061482;28;20274;-82
2022/07/25 06:36:27;;;;;;;10.05;9.25;;;;;;;38.53;21.33;95318.66;5049548;28;20185;-82
2022/07/25 06:38:52;;;;;;;11.07;10.27;;;;;;;38.37;22.10;95319.59;5049229;28;21170;-82
2022/07/25 06:41:17;;;;;;;10.35;9.65;;;;;;;40.13;19.95;95311.75;5048866;28;20173;-82
2022/07/25 06:43:43;;;;;;;10.80;10.00;;;;;;;38.42;21.82;95314.75;5046752;28;20573;-81
2022/07/25 06:46:08;;;;;;;10.40;9.60;;;;;;;38.54;21.71;95317.53;5031003;28;20184;-81
2022/07/25 06:48:33;;;;;;;11.38;10.35;;;;;;;38.30;21.57;95322.81;5048289;28;20234;-82
2022/07/25 06:50:58;;;;;;;11.10;10.20;;;;;;;37.66;23.00;95318.34;5034857;28;20181;-81
2022/07/25 06:53:24;;;;;;;10.50;9.63;;;;;;;38.06;22.30;95314.50;5043564;28;20722;-82
2022/07/25 06:55:49;;;;;;;9.75;9.05;;;;;;;39.07;21.05;95315.97;5044945;28;20204;-81
2022/07/25 06:58:14;;;;;;;10.50;9.63;;;;;;;37.77;22.36;95318.78;5059721;28;20239;-82
2022/07/25 07:00:40;;;;;;;10.07;9.32;;;;;;;37.98;22.17;95313.41;5030922;28;20637;-82
2022/07/25 07:03:05;;;;;;;11.13;10.32;;;;;;;38.79;21.06;95314.97;5030081;28;20219;-81
2022/07/25 07:05:33;;;;;;;10.70;9.90;;;;;;;40.14;20.29;95311.41;5045952;28;20182;-82
2022/07/25 07:08:00;;;;;;;10.82;10.00;;;;;;;39.77;19.88;95312.53;5066433;28;20188;-81
2022/07/25 07:10:25;;;;;;;11.10;10.20;;;;;;;39.29;20.78;95309.38;5045403;28;20185;-81
2022/07/25 07:13:02;;;;;;;10.38;9.57;;;;;;;38.81;20.90;95318.94;5031746;28;20219;-81
2022/07/25 07:15:27;;;;;;;10.75;9.82;;;;;;;37.09;23.03;95309.72;5045572;28;20616;-81
2022/07/25 07:17:53;;;;;;;9.98;9.27;;;;;;;38.38;21.97;95311.13;5066213;28;20203;-81
2022/07/25 07:20:18;;;;;;;10.85;9.95;;;;;;;38.26;22.51;95319.19;5061340;28;20542;-78
2022/07/25 07:22:48;;;;;;;10.40;9.48;;;;;;;39.24;20.87;95311.53;5047566;28;20204;-76
2022/07/25 07:25:19;;;;;;;10.93;10.02;;;;;;;37.07;23.06;95312.75;5026326;28;20189;-77
2022/07/25 07:27:45;;;;;;;9.45;8.75;;;;;;;38.01;21.37;95315.50;5064726;28;20185;-78
2022/07/25 07:30:13;;;;;;;9.05;8.35;;;;;;;37.68;20.77;95315.31;5062606;28;20280;-77
2022/07/25 07:32:38;;;;;;;9.25;8.40;;;;;;;38.29;20.87;95310.38;5064532;28;20677;-77
2022/07/25 07:35:04;;;;;;;9.77;8.88;;;;;;;37.83;21.42;95312.06;5045975;28;20239;-77
2022/07/25 07:37:29;;;;;;;9.90;8.93;;;;;;;37.59;20.68;95307.22;5063162;28;20683;-80
2022/07/25 07:39:55;;;;;;;9.38;8.52;;;;;;;36.43;22.70;95306.44;5074462;28;20190;-81
2022/07/25 07:42:20;;;;;;;9.98;9.07;;;;;;;36.92;22.09;95312.47;5047217;28;20236;-79
2022/07/25 07:44:45;;;;;;;10.07;9.32;;;;;;;36.88;22.07;95319.63;5070535;28;20181;-77
2022/07/25 07:47:11;;;;;;;10.30;9.30;;;;;;;37.61;21.49;95309.59;5057975;28;20186;-79
2022/07/25 07:49:36;;;;;;;9.45;8.75;;;;;;;38.31;20.62;95313.56;5088516;28;20183;-81
2022/07/25 07:52:01;;;;;;;10.20;9.25;;;;;;;37.61;21.12;95309.59;5065522;28;20212;-81
2022/07/25 07:57:10;;;;;;;10.32;9.38;;;;;;;35.87;23.19;95306.13;5079378;28;20271;-82
2022/07/25 07:59:36;;;;;;;9.35;8.63;;;;;;;36.54;22.30;95305.00;5067242;28;20173;-81
2022/07/25 08:02:01;;;;;;;10.65;9.77;;;;;;;36.52;22.75;95309.94;5053302;28;20204;-81
2022/07/25 08:04:27;;;;;;;9.65;8.82;;;;;;;35.95;23.01;95309.97;5025904;28;20193;-80
2022/07/25 08:06:52;;;;;;;9.48;8.68;;;;;;;35.81;22.99;95303.88;5044903;28;20234;-81
2022/07/25 08:09:18;;;;;;;8.75;8.00;;;;;;;35.56;22.88;95298.06;5045902;28;20612;-81
2022/07/25 08:11:43;;;;;;;10.48;9.52;;;;;;;34.78;24.55;95300.28;5042075;28;20253;-81
2022/07/25 08:14:08;;;;;;;10.32;9.43;;;;;;;34.76;24.41;95302.50;5045037;28;20220;-80
2022/07/25 08:16:34;;;;;;;10.90;9.68;;;;;;;34.87;24.84;95303.84;5041999;28;20182;-81
2022/07/25 08:18:59;;;;;;;8.43;7.72;;;;;;;34.89;23.50;95298.97;5048351;28;20199;-81
2022/07/25 08:21:24;;;;;;;9.23;8.43;;;;;;;33.34;25.11;95303.56;5046067;28;20185;-82
2022/07/25 08:23:50;;;;;;;9.63;8.90;;;;;;;34.19;25.93;95307.56;5046432;28;20628;-81
2022/07/25 08:26:15;;;;;;;9.48;8.77;;;;;;;33.97;26.29;95304.81;5044138;28;20201;-82
2022/07/25 08:28:41;;;;;;;9.80;8.80;;;;;;;34.01;26.30;95303.88;5064925;28;20220;-81
2022/07/25 08:31:06;;;;;;;9.95;9.15;;;;;;;33.67;26.93;95314.28;5029612;28;20193;-82
2022/07/25 08:33:32;;;;;;;9.60;8.57;;;;;;;33.86;26.57;95324.94;5045853;28;20213;-82
2022/07/25 08:35:57;;;;;;;10.57;9.68;;;;;;;33.58;26.76;95316.06;5057768;28;20220;-81
2022/07/25 08:38:24;;;;;;;9.95;9.07;;;;;;;32.74;28.70;95316.94;5048157;28;20234;-80
2022/07/25 08:40:50;;;;;;;9.02;8.32;;;;;;;33.35;26.61;95323.19;5059597;28;20971;-81
2022/07/25 08:43:16;;;;;;;10.65;9.50;;;;;;;33.12;28.27;95331.09;5044941;28;20246;-85
2022/07/25 08:45:43;;;;;;;9.25;8.52;;;;;;;32.72;28.41;95323.69;5027997;28;20201;-81
2022/07/25 08:48:09;;;;;;;8.57;7.78;;;;;;;32.67;25.43;95319.19;5042439;28;20216;-81
2022/07/25 08:50:34;;;;;;;8.75;7.88;;;;;;;32.64;25.57;95319.78;5062919;28;20193;-81
2022/07/25 08:52:59;;;;;;;8.52;7.82;;;;;;;32.73;25.87;95320.72;5046505;28;20202;-80
2022/07/25 08:55:27;;;;;;;7.93;7.22;;;;;;;32.34;25.91;95313.78;5062335;28;20551;-80
2022/07/25 08:57:53;;;;;;;7.95;7.25;;;;;;;32.12;25.13;95314.31;5059554;28;20196;-80
2022/07/25 09:00:25;;;;;;;9.13;8.18;;;;;;;32.07;26.11;95321.63;5045841;28;20193;-80
2022/07/25 09:02:59;;;;;;;8.07;7.47;;;;;;;32.08;26.24;95320.56;5041599;28;20581;-81
2022/07/25 09:05:25;;;;;;;8.05;7.28;;;;;;;32.57;24.90;95322.81;5044818;28;20648;-81
2022/07/25 09:07:51;;;;;;;8.32;7.15;;;;;;;32.08;25.85;95317.88;5049324;28;20196;-82
2022/07/25 09:10:25;;;;;;;6.97;6.38;;;;;;;32.36;24.79;95319.66;5049341;28;20275;-81
2022/07/25 09:13:02;;;;;;;7.45;6.78;;;;;;;32.62;25.61;95317.38;5026320;28;20237;-82
2022/07/25 09:15:32;;;;;;;6.82;6.13;;;;;;;32.58;25.09;95308.28;5042811;28;20660;-82
2022/07/25 09:17:59;;;;;;;7.13;6.10;;;;;;;32.63;24.28;95312.81;5073164;28;20204;-81
2022/07/25 09:20:39;;;;;;;6.30;5.70;;;;;;;32.70;23.97;95307.88;5052287;28;20184;-82
2022/07/25 09:23:04;;;;;;;7.75;6.78;;;;;;;32.61;24.23;95310.41;5068025;28;20196;-82
2022/07/25 09:25:30;;;;;;;9.77;6.32;;;;;;;32.93;24.49;95309.66;5056081;28;20209;-81
2022/07/25 09:28:08;;;;;;;7.30;6.70;;;;;;;32.64;24.71;95306.34;5046232;28;20198;-82
2022/07/25 09:30:34;;;;;;;6.90;6.30;;;;;;;32.82;24.95;95304.72;5056203;28;20204;-82
2022/07/25 09:33:00;;;;;;;7.45;6.85;;;;;;;32.65;25.27;95299.88;5048222;28;20201;-82
2022/07/25 09:35:33;;;;;;;7.80;7.13;;;;;;;32.58;25.07;95302.13;5030669;28;20665;-82
2022/07/25 09:38:13;;;;;;;7.38;6.72;;;;;;;32.67;23.81;95297.69;5068543;28;20228;-82
2022/07/25 09:40:40;;;;;;;6.63;6.03;;;;;;;32.62;24.61;95300.47;5048558;28;20329;-82
2022/07/25 09:43:06;;;;;;;6.85;6.25;;;;;;;32.69;24.92;95293.63;5066984;28;20636;-83
2022/07/25 09:45:31;;;;;;;7.13;6.53;;;;;;;32.75;24.61;95297.00;5045811;28;20221;-82
2022/07/25 09:48:04;;;;;;;6.57;6.07;;;;;;;32.89;25.10;95294.41;5056930;28;20192;-83
2022/07/25 09:50:31;;;;;;;8.27;6.35;;;;;;;32.90;24.96;95294.09;5065708;28;20186;-83
2022/07/25 09:53:02;;;;;;;6.85;5.95;;;;;;;33.04;24.94;95296.00;5036142;28;20584;-81
2022/07/25 09:55:29;;;;;;;7.35;6.65;;;;;;;32.71;25.07;95295.22;5031266;28;20215;-83
2022/07/25 09:57:54;;;;;;;7.43;6.70;;;;;;;32.88;25.36;95290.91;5061745;28;20192;-82
2022/07/25 10:00:22;;;;;;;7.72;7.03;;;;;;;32.87;25.39;95289.31;5067209;28;20265;-82
2022/07/25 10:02:55;;;;;;;7.80;7.20;;;;;;;33.03;25.49;95294.44;5064924;28;20639;-81
2022/07/25 10:05:55;;;;;;;7.45;6.82;;;;;;;33.44;25.38;95289.94;5048021;28;20182;-81
2022/07/25 10:08:21;;;;;;;7.72;7.03;;;;;;;33.57;24.00;95295.63;5033724;28;20203;-81
2022/07/25 10:10:46;;;;;;;7.25;6.65;;;;;;;33.21;24.96;95280.09;5028886;28;20185;-80
2022/07/25 10:13:27;;;;;;;7.65;7.03;;;;;;;33.10;24.69;95278.69;5056511;28;20579;-81
2022/07/25 10:15:52;;;;;;;7.50;6.90;;;;;;;33.38;24.29;95276.88;5030430;28;20288;-81
2022/07/25 10:18:20;;;;;;;7.25;6.60;;;;;;;33.07;24.44;95274.72;5047987;28;20272;-82
2022/07/25 10:20:46;;;;;;;6.80;6.13;;;;;;;33.19;24.78;95271.53;5064318;28;20231;-81
2022/07/25 10:23:23;;;;;;;5.82;5.32;;;;;;;33.46;24.45;95274.28;5067037;28;20240;-82
2022/07/25 10:26:08;;;;;;;6.50;6.00;;;;;;;33.38;24.65;95268.78;5070845;28;20601;-82
2022/07/25 10:28:36;;;;;;;6.63;6.13;;;;;;;33.75;24.79;95257.03;5048155;28;20728;-84
2022/07/25 10:31:01;;;;;;;7.18;6.57;;;;;;;33.88;23.50;95264.31;5056772;28;20615;-84
2022/07/25 10:33:26;;;;;;;8.00;6.90;;;;;;;33.81;24.64;95261.19;5065713;28;20205;-82
2022/07/25 10:35:52;;;;;;;7.32;6.72;;;;;;;33.50;25.36;95261.84;5063217;28;20204;-82
2022/07/25 10:38:23;;;;;;;7.10;6.50;;;;;;;33.83;25.21;95259.00;5048561;28;20210;-83
2022/07/25 10:40:48;;;;;;;6.03;5.57;;;;;;;34.20;23.32;95257.97;5029826;28;20559;-83
2022/07/25 10:43:18;;;;;;;5.97;5.47;;;;;;;34.64;23.13;95257.22;5064823;28;20212;-85
2022/07/25 10:45:52;;;;;;;5.80;5.40;;;;;;;34.59;22.82;95246.56;5049212;28;20235;-83
2022/07/25 10:48:28;;;;;;;6.40;5.80;;;;;;;34.73;23.07;95243.00;5032414;28;20181;-83
2022/07/25 10:51:10;;;;;;;5.93;5.43;;;;;;;35.05;22.05;95242.72;5046053;28;20189;-84
2022/07/25 10:53:45;;;;;;;5.63;5.22;;;;;;;35.38;22.00;95247.78;5030402;28;20217;-83
2022/07/25 10:56:28;;;;;;;6.22;5.63;;;;;;;35.23;22.69;95245.50;5065697;28;20558;-83
2022/07/25 10:59:00;;;;;;;6.70;6.10;;;;;;;35.21;22.29;95237.72;5048002;28;20182;-83
2022/07/25 11:01:30;;;;;;;6.38;5.78;;;;;;;35.09;21.73;95230.22;5053508;28;20193;-83
2022/07/25 11:03:58;;;;;;;6.00;5.47;;;;;;;34.89;22.15;95236.13;5047499;28;20231;-83
2022/07/25 11:06:35;;;;;;;6.72;6.05;;;;;;;35.18;22.03;95238.34;5031343;28;20553;-84
2022/07/25 11:09:19;;;;;;;6.78;6.18;;;;;;;34.99;22.46;95235.09;5036366;28;20196;-83
2022/07/25 11:11:50;;;;;;;6.68;6.07;;;;;;;34.54;22.63;95233.19;5067783;28;20204;-83
2022/07/25 11:14:23;;;;;;;7.25;6.43;;;;;;;34.62;23.08;95235.13;5050942;28;20233;-83
2022/07/25 11:16:50;;;;;;;7.60;6.68;;;;;;;35.01;23.56;95233.66;5048096;28;20190;-83
2022/07/25 11:19:17;;;;;;;7.63;7.00;;;;;;;35.42;22.70;95229.88;5055146;28;20704;-83
2022/07/25 11:21:51;;;;;;;7.45;6.65;;;;;;;35.30;22.94;95235.84;5027898;28;20273;-83
2022/07/25 11:24:17;;;;;;;8.52;6.82;;;;;;;34.58;23.50;95236.88;5030942;28;20185;-83
2022/07/25 11:26:50;;;;;;;7.68;6.88;;;;;;;34.46;24.40;95233.94;5044806;28;20220;-83